»·PEaware :: PAIN22 KGEG-KSEA

PAIN22 :: KGEG-KSEA

FLIGHT INFORMATION

Flight Status: Arrived
Operator: Unknown
More flights by this operator :: More flights under this callsign
Pilot: J. O. (21276)
Aircraft: BEECH AIRCRAFT T-6A TEXAN
(TEX2)
More flights by this aircraft type
Origin: KGEG Spokane Intl
United States
Destination: KSEA Seattle-Tacoma Intl
United States
More flights between these airports :: More routes between these airports
Route: +GEG6 EPH EPH8
File this flight plan on PilotEdge
Remarks: RQST vectors to final on KSEA ILS 16L
Altitude:
(Current/Filed)
16,000ft
Speed:
(Current/Filed)
270kts
Departed: 09-Nov-20 08:29 AM
Arrived: 09-Nov-20 09:26 AM
Distance/Time
Traveled:
194nm/0:57
Distance/Time
To Go:
Arrived

Flight Plot

Page will automatically refresh every two minutes.

Flight plan parsing failed; only flown route is shown


Map Options




Map Legend


Flown Route
Filed Route
Departure Airport
Arrival Airport
Navaid (VOR, NDB)
Fix

Horizontal Profiles

Position Reports

Time Latitude Longitude Heading Altitude Ground
Speed
09-Nov-20 08:14 47.620428 -117.528554 0 2359ft 0kts
09-Nov-20 08:15 47.620428 -117.528554 359 2359ft 0kts
09-Nov-20 08:16 47.620428 -117.528554 359 2359ft 0kts
09-Nov-20 08:17 47.620428 -117.528554 359 2359ft 0kts
09-Nov-20 08:18 47.620428 -117.528554 359 2359ft 0kts
09-Nov-20 08:19 47.620428 -117.528554 359 2359ft 0kts
09-Nov-20 08:20 47.620428 -117.528554 359 2359ft 0kts
09-Nov-20 08:21 47.620428 -117.528554 359 2359ft 0kts
09-Nov-20 08:22 47.620428 -117.528554 359 2359ft 0kts
09-Nov-20 08:23 47.622150 -117.528429 43 2356ft 12kts
09-Nov-20 08:24 47.624797 -117.524447 46 2347ft 15kts
09-Nov-20 08:25 47.627567 -117.520281 44 2339ft 15kts
09-Nov-20 08:26 47.630382 -117.517258 314 2323ft 0kts
09-Nov-20 08:27 47.630508 -117.517444 315 2323ft 0kts
09-Nov-20 08:28 47.630011 -117.520090 224 2331ft 61kts
09-Nov-20 08:29 47.629952 -117.516998 226 2325ft 0kts
09-Nov-20 08:30 47.629952 -117.516998 226 2325ft 0kts
09-Nov-20 08:31 47.626169 -117.520130 0 2341ft 0kts
09-Nov-20 08:32 47.629929 -117.516975 0 2325ft 0kts
09-Nov-20 08:33 47.620428 -117.528554 359 2359ft 0kts
09-Nov-20 08:34 36.346970 -97.909981 219 1279ft 0kts
09-Nov-20 08:37 47.630346 -117.517206 317 2323ft 3kts
09-Nov-20 08:38 47.625757 -117.526626 225 2477ft 115kts
09-Nov-20 08:39 47.593823 -117.571408 223 4854ft 183kts
09-Nov-20 08:40 47.556767 -117.619932 223 8402ft 176kts
09-Nov-20 08:41 47.522600 -117.671908 225 12040ft 186kts
09-Nov-20 08:42 47.491573 -117.733829 227 15451ft 196kts
09-Nov-20 08:43 47.489774 -117.660209 77 16084ft 267kts
09-Nov-20 08:44 47.505799 -117.544471 78 16006ft 298kts
09-Nov-20 08:45 47.484875 -117.484595 256 15920ft 292kts
09-Nov-20 08:46 47.473406 -117.604821 261 16037ft 301kts
09-Nov-20 08:47 47.462717 -117.727409 264 15979ft 303kts
09-Nov-20 08:48 47.455679 -117.850750 265 16052ft 301kts
09-Nov-20 08:49 47.448975 -117.973713 266 16066ft 301kts
09-Nov-20 08:51 47.442812 -118.097942 266 15972ft 303kts
09-Nov-20 08:52 47.440235 -118.222172 267 16187ft 296kts
09-Nov-20 08:53 47.436358 -118.345397 267 16047ft 303kts
09-Nov-20 08:54 47.433352 -118.469093 269 16081ft 302kts
09-Nov-20 08:55 47.429884 -118.593425 266 16005ft 302kts
09-Nov-20 08:56 47.421260 -118.716616 264 16078ft 300kts
09-Nov-20 08:57 47.412966 -118.839869 263 16023ft 301kts
09-Nov-20 08:58 47.404028 -118.962970 264 16036ft 303kts
09-Nov-20 08:59 47.399562 -119.086995 267 16105ft 299kts
09-Nov-20 09:00 47.391399 -119.209796 264 15991ft 302kts
09-Nov-20 09:01 47.382981 -119.333066 264 16039ft 302kts
09-Nov-20 09:02 47.379106 -119.456183 285 16047ft 300kts
09-Nov-20 09:03 47.406799 -119.572635 289 16050ft 301kts
09-Nov-20 09:04 47.495806 -120.020428 287 16132ft 300kts
09-Nov-20 09:05 47.542441 -120.261842 286 15951ft 302kts
09-Nov-20 09:06 47.589153 -120.501387 285 16592ft 295kts
09-Nov-20 09:06 47.613423 -120.708181 278 15992ft 304kts
09-Nov-20 09:08 47.654452 -120.995518 284 16083ft 302kts
09-Nov-20 09:08 47.693390 -121.196164 288 15850ft 305kts
09-Nov-20 09:10 47.737661 -121.379110 290 16015ft 304kts
09-Nov-20 09:10 47.759346 -121.478500 287 15913ft 305kts
09-Nov-20 09:12 47.788233 -121.618905 286 15608ft 310kts
09-Nov-20 09:12 47.809576 -121.722274 287 13228ft 296kts
09-Nov-20 09:13 47.829206 -121.832852 269 10207ft 276kts
09-Nov-20 09:14 47.821574 -121.945725 265 7815ft 266kts
09-Nov-20 09:15 47.814714 -122.051975 264 5556ft 254kts
09-Nov-20 09:16 47.808662 -122.151067 264 3775ft 237kts
09-Nov-20 09:17 47.804592 -122.245016 267 2763ft 220kts
09-Nov-20 09:18 47.762068 -122.279670 184 2775ft 207kts
09-Nov-20 09:19 47.706784 -122.300112 197 2777ft 206kts
09-Nov-20 09:20 47.648949 -122.306256 186 2753ft 208kts
09-Nov-20 09:21 47.591002 -122.305301 184 2773ft 208kts
09-Nov-20 09:22 47.541523 -122.306694 184 1957ft 133kts
09-Nov-20 09:23 47.506610 -122.306897 181 1335ft 122kts
09-Nov-20 09:24 47.474992 -122.307674 180 697ft 108kts
09-Nov-20 09:25 47.452943 -122.307838 179 418ft 32kts

Navigation Log

Ident Type
Flight plan parsing failed, navigation log unavailable